sensor_id;sensor_type;location;lat;lon;timestamp;P1;durP1;ratioP1;P2;durP2;ratioP2
40256;SDS011;25977;45.462;9.210;2022-12-18T00:01:16;16.45;;;11.15;;
40256;SDS011;25977;45.462;9.210;2022-12-18T00:03:44;18.40;;;11.48;;
40256;SDS011;25977;45.462;9.210;2022-12-18T00:06:10;15.90;;;12.10;;
40256;SDS011;25977;45.462;9.210;2022-12-18T00:08:36;17.90;;;12.05;;
40256;SDS011;25977;45.462;9.210;2022-12-18T00:11:03;20.10;;;12.52;;
40256;SDS011;25977;45.462;9.210;2022-12-18T00:13:30;19.50;;;11.93;;
40256;SDS011;25977;45.462;9.210;2022-12-18T00:16:00;19.95;;;12.00;;
40256;SDS011;25977;45.462;9.210;2022-12-18T00:18:31;14.98;;;11.35;;
40256;SDS011;25977;45.462;9.210;2022-12-18T00:20:58;17.10;;;12.02;;
40256;SDS011;25977;45.462;9.210;2022-12-18T00:23:26;20.20;;;12.95;;
40256;SDS011;25977;45.462;9.210;2022-12-18T00:25:52;19.02;;;11.85;;
40256;SDS011;25977;45.462;9.210;2022-12-18T00:28:18;19.70;;;13.52;;
40256;SDS011;25977;45.462;9.210;2022-12-18T00:30:45;19.90;;;12.60;;
40256;SDS011;25977;45.462;9.210;2022-12-18T00:33:11;19.05;;;13.23;;
40256;SDS011;25977;45.462;9.210;2022-12-18T00:35:36;20.67;;;12.52;;
40256;SDS011;25977;45.462;9.210;2022-12-18T00:38:02;19.23;;;12.52;;
40256;SDS011;25977;45.462;9.210;2022-12-18T00:40:28;19.67;;;12.75;;
40256;SDS011;25977;45.462;9.210;2022-12-18T00:42:54;20.60;;;13.52;;
40256;SDS011;25977;45.462;9.210;2022-12-18T00:45:26;17.70;;;13.57;;
40256;SDS011;25977;45.462;9.210;2022-12-18T00:47:54;23.67;;;13.53;;
40256;SDS011;25977;45.462;9.210;2022-12-18T00:50:21;20.92;;;12.75;;
40256;SDS011;25977;45.462;9.210;2022-12-18T00:52:47;19.15;;;13.43;;
40256;SDS011;25977;45.462;9.210;2022-12-18T00:55:13;19.65;;;12.35;;
40256;SDS011;25977;45.462;9.210;2022-12-18T00:57:40;20.50;;;12.57;;
40256;SDS011;25977;45.462;9.210;2022-12-18T01:00:06;19.27;;;13.52;;
40256;SDS011;25977;45.462;9.210;2022-12-18T01:02:34;24.75;;;14.20;;
40256;SDS011;25977;45.462;9.210;2022-12-18T01:05:00;21.73;;;13.73;;
40256;SDS011;25977;45.462;9.210;2022-12-18T01:07:26;36.05;;;17.70;;
40256;SDS011;25977;45.462;9.210;2022-12-18T01:09:52;32.05;;;16.92;;
40256;SDS011;25977;45.462;9.210;2022-12-18T01:12:17;36.83;;;17.23;;
40256;SDS011;25977;45.462;9.210;2022-12-18T01:14:43;35.97;;;17.73;;
40256;SDS011;25977;45.462;9.210;2022-12-18T01:17:09;33.97;;;18.20;;
40256;SDS011;25977;45.462;9.210;2022-12-18T01:19:34;34.63;;;17.38;;
40256;SDS011;25977;45.462;9.210;2022-12-18T01:22:00;34.28;;;16.10;;
40256;SDS011;25977;45.462;9.210;2022-12-18T01:24:26;36.20;;;17.77;;
40256;SDS011;25977;45.462;9.210;2022-12-18T01:26:51;39.08;;;19.40;;
40256;SDS011;25977;45.462;9.210;2022-12-18T01:29:17;30.30;;;15.35;;
40256;SDS011;25977;45.462;9.210;2022-12-18T01:31:43;31.63;;;15.82;;
40256;SDS011;25977;45.462;9.210;2022-12-18T01:34:08;32.97;;;17.17;;
40256;SDS011;25977;45.462;9.210;2022-12-18T01:36:36;34.63;;;16.13;;
40256;SDS011;25977;45.462;9.210;2022-12-18T01:39:08;32.60;;;16.42;;
40256;SDS011;25977;45.462;9.210;2022-12-18T01:41:37;39.95;;;17.42;;
40256;SDS011;25977;45.462;9.210;2022-12-18T01:52:41;39.75;;;18.90;;
40256;SDS011;25977;45.462;9.210;2022-12-18T01:55:08;39.47;;;19.15;;
40256;SDS011;25977;45.462;9.210;2022-12-18T01:57:35;38.40;;;19.35;;
40256;SDS011;25977;45.462;9.210;2022-12-18T02:00:07;37.47;;;19.20;;
40256;SDS011;25977;45.462;9.210;2022-12-18T02:02:40;36.05;;;18.58;;
40256;SDS011;25977;45.462;9.210;2022-12-18T02:05:07;40.47;;;19.27;;
40256;SDS011;25977;45.462;9.210;2022-12-18T02:07:42;34.30;;;18.05;;
40256;SDS011;25977;45.462;9.210;2022-12-18T02:15:58;34.25;;;18.17;;
40256;SDS011;25977;45.462;9.210;2022-12-18T02:18:38;36.22;;;18.33;;
40256;SDS011;25977;45.462;9.210;2022-12-18T02:31:24;34.88;;;19.45;;
40256;SDS011;25977;45.462;9.210;2022-12-18T02:33:53;43.13;;;19.58;;
40256;SDS011;25977;45.462;9.210;2022-12-18T02:36:26;35.13;;;17.95;;
40256;SDS011;25977;45.462;9.210;2022-12-18T02:38:55;35.50;;;18.75;;
40256;SDS011;25977;45.462;9.210;2022-12-18T02:41:22;37.97;;;17.77;;
40256;SDS011;25977;45.462;9.210;2022-12-18T02:43:53;40.53;;;20.55;;
40256;SDS011;25977;45.462;9.210;2022-12-18T02:59:58;36.75;;;20.20;;
40256;SDS011;25977;45.462;9.210;2022-12-18T03:07:46;35.65;;;18.25;;
40256;SDS011;25977;45.462;9.210;2022-12-18T03:10:35;35.90;;;19.05;;
40256;SDS011;25977;45.462;9.210;2022-12-18T03:15:39;40.47;;;19.30;;
40256;SDS011;25977;45.462;9.210;2022-12-18T03:18:15;40.78;;;20.33;;
40256;SDS011;25977;45.462;9.210;2022-12-18T03:20:44;33.17;;;18.10;;
40256;SDS011;25977;45.462;9.210;2022-12-18T03:23:18;39.65;;;19.85;;
40256;SDS011;25977;45.462;9.210;2022-12-18T03:25:48;34.00;;;18.00;;
40256;SDS011;25977;45.462;9.210;2022-12-18T03:28:21;41.20;;;19.50;;
40256;SDS011;25977;45.462;9.210;2022-12-18T03:33:24;34.22;;;18.75;;
40256;SDS011;25977;45.462;9.210;2022-12-18T03:35:56;41.63;;;20.50;;
40256;SDS011;25977;45.462;9.210;2022-12-18T03:38:22;38.13;;;20.90;;
40256;SDS011;25977;45.462;9.210;2022-12-18T03:41:10;43.90;;;20.13;;
40256;SDS011;25977;45.462;9.210;2022-12-18T03:49:38;35.95;;;19.88;;
40256;SDS011;25977;45.462;9.210;2022-12-18T03:52:10;32.90;;;18.27;;
40256;SDS011;25977;45.462;9.210;2022-12-18T03:54:39;37.15;;;19.00;;
40256;SDS011;25977;45.462;9.210;2022-12-18T03:57:19;37.75;;;17.55;;
40256;SDS011;25977;45.462;9.210;2022-12-18T03:59:51;37.25;;;18.63;;
40256;SDS011;25977;45.462;9.210;2022-12-18T04:03:02;41.17;;;20.23;;
40256;SDS011;25977;45.462;9.210;2022-12-18T04:05:37;38.28;;;17.98;;
40256;SDS011;25977;45.462;9.210;2022-12-18T04:08:05;40.70;;;20.17;;
40256;SDS011;25977;45.462;9.210;2022-12-18T04:10:35;34.35;;;19.25;;
40256;SDS011;25977;45.462;9.210;2022-12-18T04:15:59;34.20;;;18.45;;
40256;SDS011;25977;45.462;9.210;2022-12-18T04:18:26;41.72;;;18.15;;
40256;SDS011;25977;45.462;9.210;2022-12-18T04:20:53;41.17;;;18.95;;
40256;SDS011;25977;45.462;9.210;2022-12-18T04:23:19;38.38;;;19.60;;
40256;SDS011;25977;45.462;9.210;2022-12-18T04:25:45;42.97;;;22.13;;
40256;SDS011;25977;45.462;9.210;2022-12-18T04:28:19;41.75;;;18.88;;
40256;SDS011;25977;45.462;9.210;2022-12-18T04:30:48;40.40;;;20.00;;
40256;SDS011;25977;45.462;9.210;2022-12-18T04:33:13;48.50;;;21.00;;
40256;SDS011;25977;45.462;9.210;2022-12-18T04:35:43;43.42;;;19.83;;
40256;SDS011;25977;45.462;9.210;2022-12-18T04:38:09;49.85;;;21.05;;
40256;SDS011;25977;45.462;9.210;2022-12-18T04:40:36;48.95;;;22.08;;
40256;SDS011;25977;45.462;9.210;2022-12-18T04:43:09;55.42;;;22.92;;
40256;SDS011;25977;45.462;9.210;2022-12-18T04:45:35;52.15;;;21.35;;
40256;SDS011;25977;45.462;9.210;2022-12-18T04:48:01;59.75;;;24.35;;
40256;SDS011;25977;45.462;9.210;2022-12-18T04:50:28;50.40;;;21.45;;
40256;SDS011;25977;45.462;9.210;2022-12-18T04:52:55;60.78;;;23.95;;
40256;SDS011;25977;45.462;9.210;2022-12-18T04:55:21;60.80;;;23.58;;
40256;SDS011;25977;45.462;9.210;2022-12-18T04:57:46;71.03;;;23.95;;
40256;SDS011;25977;45.462;9.210;2022-12-18T05:00:12;65.53;;;23.20;;
40256;SDS011;25977;45.462;9.210;2022-12-18T05:02:38;63.47;;;23.92;;
40256;SDS011;25977;45.462;9.210;2022-12-18T05:05:04;61.97;;;23.48;;
40256;SDS011;25977;45.462;9.210;2022-12-18T05:07:31;62.55;;;22.50;;
40256;SDS011;25977;45.462;9.210;2022-12-18T05:09:56;59.08;;;23.33;;
40256;SDS011;25977;45.462;9.210;2022-12-18T05:12:23;67.18;;;24.88;;
40256;SDS011;25977;45.462;9.210;2022-12-18T05:14:50;57.15;;;21.55;;
40256;SDS011;25977;45.462;9.210;2022-12-18T05:17:16;59.92;;;22.58;;
40256;SDS011;25977;45.462;9.210;2022-12-18T05:19:41;59.13;;;23.25;;
40256;SDS011;25977;45.462;9.210;2022-12-18T05:22:07;56.28;;;22.27;;
40256;SDS011;25977;45.462;9.210;2022-12-18T05:24:33;51.40;;;22.33;;
40256;SDS011;25977;45.462;9.210;2022-12-18T05:26:59;63.17;;;23.45;;
40256;SDS011;25977;45.462;9.210;2022-12-18T05:29:25;58.17;;;22.20;;
40256;SDS011;25977;45.462;9.210;2022-12-18T05:31:50;54.30;;;23.35;;
40256;SDS011;25977;45.462;9.210;2022-12-18T05:34:16;46.58;;;20.80;;
40256;SDS011;25977;45.462;9.210;2022-12-18T05:36:42;55.72;;;22.35;;
40256;SDS011;25977;45.462;9.210;2022-12-18T05:39:08;52.30;;;21.73;;
40256;SDS011;25977;45.462;9.210;2022-12-18T05:41:34;54.70;;;21.95;;
40256;SDS011;25977;45.462;9.210;2022-12-18T05:44:00;54.58;;;23.60;;
40256;SDS011;25977;45.462;9.210;2022-12-18T05:46:26;55.30;;;22.77;;
40256;SDS011;25977;45.462;9.210;2022-12-18T05:48:51;52.17;;;23.25;;
40256;SDS011;25977;45.462;9.210;2022-12-18T05:51:18;57.72;;;23.60;;
40256;SDS011;25977;45.462;9.210;2022-12-18T05:53:45;58.05;;;23.58;;
40256;SDS011;25977;45.462;9.210;2022-12-18T05:56:13;62.90;;;22.55;;
40256;SDS011;25977;45.462;9.210;2022-12-18T05:58:41;60.17;;;23.77;;
40256;SDS011;25977;45.462;9.210;2022-12-18T06:01:10;57.78;;;24.30;;
40256;SDS011;25977;45.462;9.210;2022-12-18T06:03:36;55.78;;;23.27;;
40256;SDS011;25977;45.462;9.210;2022-12-18T06:06:02;54.70;;;24.52;;
40256;SDS011;25977;45.462;9.210;2022-12-18T06:08:28;50.15;;;23.05;;
40256;SDS011;25977;45.462;9.210;2022-12-18T06:10:54;52.45;;;22.17;;
40256;SDS011;25977;45.462;9.210;2022-12-18T06:15:46;61.30;;;23.55;;
40256;SDS011;25977;45.462;9.210;2022-12-18T06:18:12;52.40;;;20.90;;
40256;SDS011;25977;45.462;9.210;2022-12-18T06:20:37;51.33;;;23.27;;
40256;SDS011;25977;45.462;9.210;2022-12-18T06:23:05;52.75;;;22.60;;
40256;SDS011;25977;45.462;9.210;2022-12-18T06:25:31;51.80;;;22.48;;
40256;SDS011;25977;45.462;9.210;2022-12-18T06:27:58;58.10;;;22.52;;
40256;SDS011;25977;45.462;9.210;2022-12-18T06:30:23;57.92;;;22.58;;
40256;SDS011;25977;45.462;9.210;2022-12-18T06:32:50;52.42;;;22.42;;
40256;SDS011;25977;45.462;9.210;2022-12-18T06:35:15;53.90;;;22.20;;
40256;SDS011;25977;45.462;9.210;2022-12-18T06:37:41;60.63;;;24.15;;
40256;SDS011;25977;45.462;9.210;2022-12-18T06:40:07;54.75;;;23.25;;
40256;SDS011;25977;45.462;9.210;2022-12-18T06:42:33;48.92;;;21.30;;
40256;SDS011;25977;45.462;9.210;2022-12-18T06:44:59;50.72;;;22.65;;
40256;SDS011;25977;45.462;9.210;2022-12-18T06:47:24;49.95;;;23.27;;
40256;SDS011;25977;45.462;9.210;2022-12-18T06:49:50;57.78;;;23.55;;
40256;SDS011;25977;45.462;9.210;2022-12-18T06:52:16;59.10;;;21.40;;
40256;SDS011;25977;45.462;9.210;2022-12-18T06:54:41;55.10;;;22.38;;
40256;SDS011;25977;45.462;9.210;2022-12-18T06:57:07;59.70;;;23.08;;
40256;SDS011;25977;45.462;9.210;2022-12-18T06:59:33;68.93;;;25.08;;
40256;SDS011;25977;45.462;9.210;2022-12-18T07:01:58;57.00;;;24.10;;
40256;SDS011;25977;45.462;9.210;2022-12-18T07:04:30;58.58;;;23.23;;
40256;SDS011;25977;45.462;9.210;2022-12-18T07:06:56;59.83;;;21.77;;
40256;SDS011;25977;45.462;9.210;2022-12-18T07:09:22;58.20;;;22.38;;
40256;SDS011;25977;45.462;9.210;2022-12-18T07:11:48;63.28;;;23.58;;
40256;SDS011;25977;45.462;9.210;2022-12-18T07:14:14;72.80;;;25.08;;
40256;SDS011;25977;45.462;9.210;2022-12-18T07:16:40;60.72;;;24.00;;
40256;SDS011;25977;45.462;9.210;2022-12-18T07:19:05;58.15;;;23.45;;
40256;SDS011;25977;45.462;9.210;2022-12-18T07:21:31;56.55;;;23.23;;
40256;SDS011;25977;45.462;9.210;2022-12-18T07:23:57;58.67;;;24.17;;
40256;SDS011;25977;45.462;9.210;2022-12-18T07:26:23;64.20;;;24.23;;
40256;SDS011;25977;45.462;9.210;2022-12-18T07:28:48;66.45;;;26.67;;
40256;SDS011;25977;45.462;9.210;2022-12-18T07:31:16;52.53;;;21.55;;
40256;SDS011;25977;45.462;9.210;2022-12-18T07:33:43;58.92;;;22.63;;
40256;SDS011;25977;45.462;9.210;2022-12-18T07:36:09;57.03;;;23.90;;
40256;SDS011;25977;45.462;9.210;2022-12-18T07:38:36;60.35;;;21.98;;
40256;SDS011;25977;45.462;9.210;2022-12-18T07:41:03;54.20;;;20.20;;
40256;SDS011;25977;45.462;9.210;2022-12-18T07:43:30;55.28;;;22.50;;
40256;SDS011;25977;45.462;9.210;2022-12-18T07:45:56;51.47;;;20.00;;
40256;SDS011;25977;45.462;9.210;2022-12-18T07:48:21;50.78;;;19.63;;
40256;SDS011;25977;45.462;9.210;2022-12-18T07:50:47;51.05;;;22.70;;
40256;SDS011;25977;45.462;9.210;2022-12-18T07:53:13;49.53;;;20.38;;
40256;SDS011;25977;45.462;9.210;2022-12-18T07:55:40;43.60;;;19.00;;
40256;SDS011;25977;45.462;9.210;2022-12-18T07:58:08;42.75;;;19.23;;
40256;SDS011;25977;45.462;9.210;2022-12-18T08:00:34;46.03;;;18.73;;
40256;SDS011;25977;45.462;9.210;2022-12-18T08:03:00;47.65;;;19.42;;
40256;SDS011;25977;45.462;9.210;2022-12-18T08:05:26;49.17;;;20.33;;
40256;SDS011;25977;45.462;9.210;2022-12-18T08:07:52;44.70;;;19.70;;
40256;SDS011;25977;45.462;9.210;2022-12-18T08:10:19;45.42;;;20.05;;
40256;SDS011;25977;45.462;9.210;2022-12-18T08:12:45;44.83;;;19.15;;
40256;SDS011;25977;45.462;9.210;2022-12-18T08:15:14;46.58;;;19.55;;
40256;SDS011;25977;45.462;9.210;2022-12-18T08:17:40;50.88;;;19.38;;
40256;SDS011;25977;45.462;9.210;2022-12-18T08:20:06;47.13;;;20.42;;
40256;SDS011;25977;45.462;9.210;2022-12-18T08:22:33;51.40;;;20.73;;
40256;SDS011;25977;45.462;9.210;2022-12-18T08:25:02;50.30;;;20.95;;
40256;SDS011;25977;45.462;9.210;2022-12-18T08:27:28;45.42;;;20.00;;
40256;SDS011;25977;45.462;9.210;2022-12-18T08:29:54;53.03;;;21.27;;
40256;SDS011;25977;45.462;9.210;2022-12-18T08:32:20;50.95;;;19.98;;
40256;SDS011;25977;45.462;9.210;2022-12-18T08:34:46;45.08;;;20.40;;
40256;SDS011;25977;45.462;9.210;2022-12-18T08:37:11;41.50;;;19.63;;
40256;SDS011;25977;45.462;9.210;2022-12-18T08:39:38;42.00;;;19.65;;
40256;SDS011;25977;45.462;9.210;2022-12-18T08:42:04;41.67;;;19.55;;
40256;SDS011;25977;45.462;9.210;2022-12-18T08:44:48;44.70;;;19.02;;
40256;SDS011;25977;45.462;9.210;2022-12-18T08:47:14;48.00;;;20.63;;
40256;SDS011;25977;45.462;9.210;2022-12-18T08:49:39;46.88;;;19.90;;
40256;SDS011;25977;45.462;9.210;2022-12-18T08:52:05;47.72;;;19.60;;
40256;SDS011;25977;45.462;9.210;2022-12-18T08:54:31;47.53;;;19.67;;
40256;SDS011;25977;45.462;9.210;2022-12-18T08:56:57;46.83;;;20.33;;
40256;SDS011;25977;45.462;9.210;2022-12-18T08:59:22;36.35;;;19.13;;
40256;SDS011;25977;45.462;9.210;2022-12-18T09:01:48;46.10;;;20.40;;
40256;SDS011;25977;45.462;9.210;2022-12-18T09:04:14;48.03;;;19.42;;
40256;SDS011;25977;45.462;9.210;2022-12-18T09:06:40;40.33;;;19.25;;
40256;SDS011;25977;45.462;9.210;2022-12-18T09:09:06;46.65;;;22.05;;
40256;SDS011;25977;45.462;9.210;2022-12-18T09:11:33;44.63;;;19.92;;
40256;SDS011;25977;45.462;9.210;2022-12-18T09:14:00;50.65;;;21.23;;
40256;SDS011;25977;45.462;9.210;2022-12-18T09:16:26;39.20;;;19.40;;
40256;SDS011;25977;45.462;9.210;2022-12-18T09:18:54;47.08;;;20.52;;
40256;SDS011;25977;45.462;9.210;2022-12-18T09:21:24;47.60;;;20.38;;
40256;SDS011;25977;45.462;9.210;2022-12-18T09:23:55;36.42;;;17.75;;
40256;SDS011;25977;45.462;9.210;2022-12-18T09:26:22;50.33;;;21.83;;
40256;SDS011;25977;45.462;9.210;2022-12-18T09:28:48;49.97;;;20.75;;
40256;SDS011;25977;45.462;9.210;2022-12-18T09:31:15;61.65;;;23.92;;
40256;SDS011;25977;45.462;9.210;2022-12-18T09:33:42;46.13;;;19.88;;
40256;SDS011;25977;45.462;9.210;2022-12-18T09:36:09;39.83;;;19.08;;
40256;SDS011;25977;45.462;9.210;2022-12-18T09:38:37;37.15;;;18.83;;
40256;SDS011;25977;45.462;9.210;2022-12-18T09:41:04;39.97;;;19.42;;
40256;SDS011;25977;45.462;9.210;2022-12-18T09:43:52;45.67;;;18.88;;
40256;SDS011;25977;45.462;9.210;2022-12-18T09:46:26;41.15;;;20.10;;
40256;SDS011;25977;45.462;9.210;2022-12-18T09:48:54;39.72;;;18.52;;
40256;SDS011;25977;45.462;9.210;2022-12-18T09:51:28;44.08;;;19.52;;
40256;SDS011;25977;45.462;9.210;2022-12-18T09:54:00;38.03;;;18.90;;
40256;SDS011;25977;45.462;9.210;2022-12-18T09:56:34;42.38;;;19.25;;
40256;SDS011;25977;45.462;9.210;2022-12-18T09:59:03;34.53;;;19.38;;
40256;SDS011;25977;45.462;9.210;2022-12-18T10:01:29;42.33;;;20.05;;
40256;SDS011;25977;45.462;9.210;2022-12-18T10:03:56;39.58;;;19.08;;
40256;SDS011;25977;45.462;9.210;2022-12-18T10:09:41;46.47;;;21.05;;
40256;SDS011;25977;45.462;9.210;2022-12-18T10:12:32;46.40;;;19.40;;
40256;SDS011;25977;45.462;9.210;2022-12-18T10:15:24;48.47;;;20.63;;
40256;SDS011;25977;45.462;9.210;2022-12-18T10:20:48;39.58;;;20.23;;
40256;SDS011;25977;45.462;9.210;2022-12-18T10:26:15;44.10;;;19.50;;
40256;SDS011;25977;45.462;9.210;2022-12-18T10:28:41;44.67;;;19.38;;
40256;SDS011;25977;45.462;9.210;2022-12-18T10:31:15;46.85;;;21.08;;
40256;SDS011;25977;45.462;9.210;2022-12-18T10:33:43;48.17;;;21.20;;
40256;SDS011;25977;45.462;9.210;2022-12-18T10:36:09;46.40;;;20.98;;
40256;SDS011;25977;45.462;9.210;2022-12-18T10:38:36;41.88;;;20.00;;
40256;SDS011;25977;45.462;9.210;2022-12-18T10:41:03;45.15;;;18.02;;
40256;SDS011;25977;45.462;9.210;2022-12-18T10:46:04;47.85;;;19.98;;
40256;SDS011;25977;45.462;9.210;2022-12-18T10:51:26;45.53;;;19.88;;
40256;SDS011;25977;45.462;9.210;2022-12-18T10:53:57;50.42;;;20.73;;
40256;SDS011;25977;45.462;9.210;2022-12-18T10:56:29;41.78;;;20.58;;
40256;SDS011;25977;45.462;9.210;2022-12-18T10:58:59;40.38;;;19.73;;
40256;SDS011;25977;45.462;9.210;2022-12-18T11:04:51;34.83;;;19.85;;
40256;SDS011;25977;45.462;9.210;2022-12-18T11:07:18;38.00;;;18.65;;
40256;SDS011;25977;45.462;9.210;2022-12-18T11:09:45;39.05;;;19.38;;
40256;SDS011;25977;45.462;9.210;2022-12-18T11:12:25;41.25;;;19.92;;
40256;SDS011;25977;45.462;9.210;2022-12-18T11:14:53;40.15;;;19.17;;
40256;SDS011;25977;45.462;9.210;2022-12-18T11:17:22;38.60;;;19.00;;
40256;SDS011;25977;45.462;9.210;2022-12-18T11:19:58;40.28;;;19.90;;
40256;SDS011;25977;45.462;9.210;2022-12-18T11:22:26;36.25;;;19.05;;
40256;SDS011;25977;45.462;9.210;2022-12-18T11:27:24;40.40;;;18.58;;
40256;SDS011;25977;45.462;9.210;2022-12-18T11:29:51;33.97;;;18.58;;
40256;SDS011;25977;45.462;9.210;2022-12-18T11:32:36;36.78;;;18.63;;
40256;SDS011;25977;45.462;9.210;2022-12-18T11:38:15;30.95;;;16.85;;
40256;SDS011;25977;45.462;9.210;2022-12-18T11:40:43;30.50;;;16.63;;
40256;SDS011;25977;45.462;9.210;2022-12-18T11:43:28;34.57;;;18.30;;
40256;SDS011;25977;45.462;9.210;2022-12-18T11:46:08;32.53;;;17.52;;
40256;SDS011;25977;45.462;9.210;2022-12-18T11:51:25;28.23;;;15.63;;
40256;SDS011;25977;45.462;9.210;2022-12-18T11:53:59;29.42;;;15.35;;
40256;SDS011;25977;45.462;9.210;2022-12-18T11:56:29;30.02;;;15.88;;
40256;SDS011;25977;45.462;9.210;2022-12-18T11:59:14;30.73;;;15.70;;
40256;SDS011;25977;45.462;9.210;2022-12-18T12:04:50;28.05;;;15.32;;
40256;SDS011;25977;45.462;9.210;2022-12-18T12:07:31;25.00;;;14.93;;
40256;SDS011;25977;45.462;9.210;2022-12-18T12:23:53;29.83;;;14.65;;
40256;SDS011;25977;45.462;9.210;2022-12-18T12:29:21;26.00;;;14.43;;
40256;SDS011;25977;45.462;9.210;2022-12-18T12:35:00;29.33;;;15.27;;
40256;SDS011;25977;45.462;9.210;2022-12-18T12:40:16;34.28;;;17.48;;
40256;SDS011;25977;45.462;9.210;2022-12-18T12:42:46;29.52;;;17.42;;
40256;SDS011;25977;45.462;9.210;2022-12-18T12:45:36;28.92;;;17.60;;
40256;SDS011;25977;45.462;9.210;2022-12-18T12:50:40;30.13;;;17.95;;
40256;SDS011;25977;45.462;9.210;2022-12-18T12:53:07;38.47;;;20.35;;
40256;SDS011;25977;45.462;9.210;2022-12-18T12:55:48;44.13;;;19.90;;
40256;SDS011;25977;45.462;9.210;2022-12-18T12:58:18;40.70;;;21.48;;
40256;SDS011;25977;45.462;9.210;2022-12-18T13:06:47;38.65;;;20.35;;
40256;SDS011;25977;45.462;9.210;2022-12-18T13:09:22;44.25;;;23.15;;
40256;SDS011;25977;45.462;9.210;2022-12-18T13:11:48;43.72;;;23.75;;
40256;SDS011;25977;45.462;9.210;2022-12-18T13:19:47;44.53;;;23.05;;
40256;SDS011;25977;45.462;9.210;2022-12-18T13:24:59;45.80;;;23.25;;
40256;SDS011;25977;45.462;9.210;2022-12-18T13:38:23;39.08;;;20.65;;
40256;SDS011;25977;45.462;9.210;2022-12-18T13:43:44;42.00;;;21.83;;
40256;SDS011;25977;45.462;9.210;2022-12-18T13:46:28;39.85;;;20.60;;
40256;SDS011;25977;45.462;9.210;2022-12-18T13:48:57;43.60;;;22.77;;
40256;SDS011;25977;45.462;9.210;2022-12-18T13:51:39;43.45;;;23.52;;
40256;SDS011;25977;45.462;9.210;2022-12-18T13:54:17;43.97;;;23.05;;
40256;SDS011;25977;45.462;9.210;2022-12-18T13:56:46;41.38;;;22.27;;
40256;SDS011;25977;45.462;9.210;2022-12-18T14:04:22;43.08;;;23.15;;
40256;SDS011;25977;45.462;9.210;2022-12-18T14:07:03;44.85;;;25.23;;
40256;SDS011;25977;45.462;9.210;2022-12-18T14:09:36;46.35;;;24.02;;
40256;SDS011;25977;45.462;9.210;2022-12-18T14:12:05;44.67;;;23.98;;
40256;SDS011;25977;45.462;9.210;2022-12-18T14:14:51;44.05;;;23.02;;
40256;SDS011;25977;45.462;9.210;2022-12-18T14:17:18;46.70;;;22.55;;
40256;SDS011;25977;45.462;9.210;2022-12-18T14:19:45;49.50;;;25.75;;
40256;SDS011;25977;45.462;9.210;2022-12-18T14:22:17;43.95;;;23.80;;
40256;SDS011;25977;45.462;9.210;2022-12-18T14:24:44;38.35;;;20.83;;
40256;SDS011;25977;45.462;9.210;2022-12-18T14:27:21;41.83;;;22.67;;
40256;SDS011;25977;45.462;9.210;2022-12-18T14:29:49;46.35;;;22.92;;
40256;SDS011;25977;45.462;9.210;2022-12-18T14:32:16;42.03;;;22.02;;
40256;SDS011;25977;45.462;9.210;2022-12-18T14:34:47;32.20;;;19.55;;
40256;SDS011;25977;45.462;9.210;2022-12-18T14:37:23;38.25;;;20.73;;
40256;SDS011;25977;45.462;9.210;2022-12-18T14:39:57;44.20;;;23.00;;
40256;SDS011;25977;45.462;9.210;2022-12-18T14:42:26;37.17;;;21.48;;
40256;SDS011;25977;45.462;9.210;2022-12-18T14:48:11;43.55;;;24.38;;
40256;SDS011;25977;45.462;9.210;2022-12-18T14:50:41;45.10;;;23.95;;
40256;SDS011;25977;45.462;9.210;2022-12-18T14:53:21;49.00;;;25.90;;
40256;SDS011;25977;45.462;9.210;2022-12-18T14:55:50;43.00;;;24.20;;
40256;SDS011;25977;45.462;9.210;2022-12-18T14:58:16;42.38;;;24.48;;
40256;SDS011;25977;45.462;9.210;2022-12-18T15:00:43;47.33;;;25.13;;
40256;SDS011;25977;45.462;9.210;2022-12-18T15:03:09;43.47;;;23.52;;
40256;SDS011;25977;45.462;9.210;2022-12-18T15:05:35;45.58;;;24.20;;
40256;SDS011;25977;45.462;9.210;2022-12-18T15:08:01;45.25;;;25.15;;
40256;SDS011;25977;45.462;9.210;2022-12-18T15:10:29;50.83;;;24.85;;
40256;SDS011;25977;45.462;9.210;2022-12-18T15:18:27;45.08;;;24.48;;
40256;SDS011;25977;45.462;9.210;2022-12-18T15:20:59;45.28;;;24.35;;
40256;SDS011;25977;45.462;9.210;2022-12-18T15:23:38;43.40;;;24.15;;
40256;SDS011;25977;45.462;9.210;2022-12-18T15:26:12;47.33;;;24.65;;
40256;SDS011;25977;45.462;9.210;2022-12-18T15:33:35;50.60;;;26.67;;
40256;SDS011;25977;45.462;9.210;2022-12-18T15:36:04;53.13;;;26.90;;
40256;SDS011;25977;45.462;9.210;2022-12-18T15:38:33;48.35;;;26.08;;
40256;SDS011;25977;45.462;9.210;2022-12-18T15:40:59;44.22;;;24.15;;
40256;SDS011;25977;45.462;9.210;2022-12-18T15:43:26;46.13;;;24.70;;
40256;SDS011;25977;45.462;9.210;2022-12-18T15:46:06;40.65;;;22.45;;
40256;SDS011;25977;45.462;9.210;2022-12-18T15:48:41;38.33;;;20.85;;
40256;SDS011;25977;45.462;9.210;2022-12-18T15:51:13;42.97;;;23.70;;
40256;SDS011;25977;45.462;9.210;2022-12-18T15:53:43;36.83;;;20.33;;
40256;SDS011;25977;45.462;9.210;2022-12-18T15:56:11;34.97;;;19.10;;
40256;SDS011;25977;45.462;9.210;2022-12-18T15:58:56;32.03;;;19.52;;
40256;SDS011;25977;45.462;9.210;2022-12-18T16:01:26;33.42;;;17.92;;
40256;SDS011;25977;45.462;9.210;2022-12-18T16:03:55;36.55;;;18.92;;
40256;SDS011;25977;45.462;9.210;2022-12-18T16:06:21;33.30;;;18.92;;
40256;SDS011;25977;45.462;9.210;2022-12-18T16:08:48;29.80;;;18.80;;
40256;SDS011;25977;45.462;9.210;2022-12-18T16:11:29;38.70;;;21.92;;
40256;SDS011;25977;45.462;9.210;2022-12-18T16:16:37;38.03;;;20.60;;
40256;SDS011;25977;45.462;9.210;2022-12-18T16:19:03;37.92;;;21.20;;
40256;SDS011;25977;45.462;9.210;2022-12-18T16:21:28;41.65;;;21.98;;
40256;SDS011;25977;45.462;9.210;2022-12-18T16:23:54;34.50;;;19.65;;
40256;SDS011;25977;45.462;9.210;2022-12-18T16:26:19;37.10;;;19.55;;
40256;SDS011;25977;45.462;9.210;2022-12-18T16:28:45;37.13;;;21.52;;
40256;SDS011;25977;45.462;9.210;2022-12-18T16:31:11;36.00;;;19.95;;
40256;SDS011;25977;45.462;9.210;2022-12-18T16:33:36;32.47;;;19.05;;
40256;SDS011;25977;45.462;9.210;2022-12-18T16:36:02;34.55;;;19.60;;
40256;SDS011;25977;45.462;9.210;2022-12-18T16:38:28;49.70;;;19.95;;
40256;SDS011;25977;45.462;9.210;2022-12-18T16:40:53;36.53;;;19.35;;
40256;SDS011;25977;45.462;9.210;2022-12-18T16:43:55;34.55;;;18.63;;
40256;SDS011;25977;45.462;9.210;2022-12-18T16:46:20;35.90;;;20.65;;
40256;SDS011;25977;45.462;9.210;2022-12-18T16:48:46;36.65;;;21.38;;
40256;SDS011;25977;45.462;9.210;2022-12-18T16:51:11;40.33;;;20.30;;
40256;SDS011;25977;45.462;9.210;2022-12-18T16:53:37;39.47;;;19.15;;
40256;SDS011;25977;45.462;9.210;2022-12-18T16:56:03;33.97;;;19.80;;
40256;SDS011;25977;45.462;9.210;2022-12-18T16:58:29;35.92;;;20.65;;
40256;SDS011;25977;45.462;9.210;2022-12-18T17:00:54;33.50;;;19.60;;
40256;SDS011;25977;45.462;9.210;2022-12-18T17:03:20;36.22;;;19.45;;
40256;SDS011;25977;45.462;9.210;2022-12-18T17:05:46;35.50;;;19.20;;
40256;SDS011;25977;45.462;9.210;2022-12-18T17:08:11;37.80;;;20.33;;
40256;SDS011;25977;45.462;9.210;2022-12-18T17:10:37;36.72;;;19.17;;
40256;SDS011;25977;45.462;9.210;2022-12-18T17:13:02;34.88;;;19.83;;
40256;SDS011;25977;45.462;9.210;2022-12-18T17:15:28;33.97;;;19.88;;